^^

NEARBY METAR REPORTS

KSQI - Sterling Rockfal, Illinois, USA
Distance from station: ESE 17mi, 27km
Updated: 02/18/2019 2:56pm
Clear
Clear
 Wind from N
Wind: N 6 mph , 9 km/h
Temperature: 27°F , -3°C
Wind Chill: 20°F , -7°C
Dew Point: 18°F , -8°C
Humidity: 69%
Barometer: 30.46 inHg , 1031.5 hPa
Clouds: Clear
Visibility: 10 miles , 16 km
2019/02/18 20:56 KSQI 182056Z AUTO 35005KT 10SM CLR M03/M08 A3046 RMK AO2 SLP337 T10281083 53018 FZRANO
KCWI - Clinton Muni, Iowa, USA
Distance from station: W 17mi, 28km
Updated: 02/18/2019 2:56pm
Clear
Clear
 Wind from W
Wind: W 9 mph , 15 km/h
Temperature: 27°F , -3°C
Wind Chill: 18°F , -8°C
Dew Point: 18°F , -8°C
Humidity: 69%
Barometer: 30.46 inHg , 1031.5 hPa
Clouds: Clear
Visibility: 10 miles , 16 km
2019/02/18 20:56 KCWI 182056Z AUTO 28008KT 10SM CLR M03/M08 A3046 RMK AO2 SLP344 T10331078 51015 FZRANO
KSFY - Savanna/Tritown, Illinois, USA
Distance from station: NNW 17mi, 28km
Updated: 02/18/2019 2:39pm
Overcast
Overcast
 Wind from W
Wind: W 7 mph , 11 km/h
Temperature: 27°F , -3°C
Wind Chill: 19°F , -7°C
Dew Point: 16°F , -9°C
Humidity: 64%
Barometer: 30.44 inHg , 1030.8 hPa
Clouds: Overcast
Visibility: 10 miles , 16 km
Cloud details: Overcast 3200 ft
2019/02/18 20:39 KSFY 182039Z AUTO 28006KT 10SM OVC032 M03/M09 A3044 RMK AO2
KDVN - Davenport/Quad C, Iowa, USA
Distance from station: WSW 34mi, 55km
Updated: 02/18/2019 2:52pm
Clear
Clear
 
Temperature: 23°F , -5°C
Dew Point: 16°F , -9°C
Humidity: 74%
Barometer: 30.47 inHg , 1031.8 hPa
Clouds: Clear
Visibility: 10 miles , 16 km
2019/02/18 20:52 KDVN 182052Z AUTO 10SM CLR M05/M09 A3047 RMK AO2 SLP327 T10501089 53013
KFEP - Freeport, Illinois, USA
Distance from station: NE 36mi, 58km
Updated: 02/18/2019 2:55pm
Partly Cloudy
Partly Cloudy
 Wind from W
Wind: W 7 mph , 11 km/h
Temperature: 23°F , -5°C
Wind Chill: 15°F , -9°C
Dew Point: 16°F , -9°C
Humidity: 74%
Barometer: 30.45 inHg , 1031.2 hPa
Clouds: Partly Cloudy
Visibility: 10 miles , 16 km
Cloud details: Partly Cloudy 2600 ft
2019/02/18 20:55 KFEP 182055Z AUTO 28006KT 10SM SCT026 M05/M09 A3045 RMK AO2 60001 T10461095
KMLI - Moline/Quad City, Illinois, USA
Distance from station: SW 38mi, 61km
Updated: 02/18/2019 2:52pm
Clear
Clear
 Wind from NNW
Wind: NNW 12 mph , 19 km/h
Temperature: 28°F , -2°C
Wind Chill: 18°F , -8°C
Dew Point: 16°F , -9°C
Humidity: 59%
Barometer: 30.45 inHg , 1031.2 hPa
Clouds: Clear
Visibility: 10 miles , 16 km
2019/02/18 20:52 KMLI 182052Z 33010KT 10SM CLR M02/M09 A3045 RMK AO2 SLP320 T10171089 53011
KRPJ - Rochelle/Koritz, Illinois, USA
Distance from station: E 46mi, 75km
Updated: 02/18/2019 2:35pm
Clear
Clear
 Wind from NNW
Wind: NNW 8 mph , 13 km/h
Temperature: 25°F , -4°C
Wind Chill: 16°F , -9°C
Dew Point: 16°F , -9°C
Humidity: 69%
Barometer: 30.43 inHg , 1030.5 hPa
Clouds: Clear
Visibility: 10 miles , 16 km
2019/02/18 20:35 KRPJ 182035Z AUTO 34007KT 10SM CLR M04/M09 A3043 RMK AO2 T10401086
KRFD - Rockford, Illinois, USA
Distance from station: ENE 52mi, 84km
Updated: 02/18/2019 2:54pm
Few Clouds
Few Clouds
 Wind from NW
Wind: NW 9 mph , 15 km/h
Temperature: 25°F , -4°C
Wind Chill: 16°F , -9°C
Dew Point: 12°F , -11°C
Humidity: 59%
Barometer: 30.44 inHg , 1030.8 hPa
Clouds: Few Clouds
Visibility: 10 miles , 16 km
Cloud details: Few Clouds 3000 ft
2019/02/18 20:54 KRFD 182054Z 31008KT 10SM FEW030 M04/M11 A3044 RMK AO2 SLP322 T10391106 53017
KVYS - Peru, Illinois, USA
Distance from station: SE 54mi, 86km
Updated: 02/18/2019 2:35pm
Partly Cloudy
Partly Cloudy
 Wind from WNW
Wind: WNW 9 mph , 15 km/h
Temperature: 25°F , -4°C
Wind Chill: 16°F , -9°C
Dew Point: 18°F , -8°C
Humidity: 74%
Barometer: 30.44 inHg , 1030.8 hPa
Clouds: Partly Cloudy
Visibility: 10 miles , 16 km
Cloud details: Partly Cloudy 3500 ft
2019/02/18 20:35 KVYS 182035Z AUTO 30008KT 10SM SCT035 M04/M08 A3044 RMK AO2 T10391077
KDBQ - Dubuque, Iowa, USA
Distance from station: NW 55mi, 88km
Updated: 02/18/2019 2:53pm
Partly Cloudy
Partly Cloudy
 Wind from WNW
Wind: WNW 7 mph , 11 km/h
Temperature: 25°F , -4°C
Wind Chill: 17°F , -8°C
Dew Point: 12°F , -11°C
Humidity: 59%
Barometer: 30.42 inHg , 1030.1 hPa
Clouds: Partly Cloudy
Visibility: 10 miles , 16 km
Cloud details: Partly Cloudy 2800 ft
2019/02/18 20:53 KDBQ 182053Z 29006KT 10SM SCT028 M04/M11 A3042 RMK AO2 SLP319 T10441106 51012